sensor_id;sensor_type;location;lat;lon;timestamp;P1;durP1;ratioP1;P2;durP2;ratioP2
34565;SDS011;20803;42.676;26.348;2023-12-29T00:02:20;11.97;;;6.10;;
34565;SDS011;20803;42.676;26.348;2023-12-29T00:04:46;7.20;;;5.30;;
34565;SDS011;20803;42.676;26.348;2023-12-29T00:07:12;7.03;;;5.00;;
34565;SDS011;20803;42.676;26.348;2023-12-29T00:09:37;9.30;;;5.70;;
34565;SDS011;20803;42.676;26.348;2023-12-29T00:12:06;10.00;;;5.50;;
34565;SDS011;20803;42.676;26.348;2023-12-29T00:14:32;5.63;;;4.37;;
34565;SDS011;20803;42.676;26.348;2023-12-29T00:16:58;7.77;;;5.07;;
34565;SDS011;20803;42.676;26.348;2023-12-29T00:19:23;7.33;;;4.97;;
34565;SDS011;20803;42.676;26.348;2023-12-29T00:21:49;8.50;;;4.97;;
34565;SDS011;20803;42.676;26.348;2023-12-29T00:24:15;7.47;;;4.53;;
34565;SDS011;20803;42.676;26.348;2023-12-29T00:26:42;5.47;;;4.20;;
34565;SDS011;20803;42.676;26.348;2023-12-29T00:29:08;7.40;;;5.00;;
34565;SDS011;20803;42.676;26.348;2023-12-29T00:31:33;9.33;;;5.80;;
34565;SDS011;20803;42.676;26.348;2023-12-29T00:33:59;10.37;;;5.27;;
34565;SDS011;20803;42.676;26.348;2023-12-29T00:36:24;8.53;;;5.00;;
34565;SDS011;20803;42.676;26.348;2023-12-29T00:38:50;7.83;;;5.20;;
34565;SDS011;20803;42.676;26.348;2023-12-29T00:41:16;8.03;;;4.80;;
34565;SDS011;20803;42.676;26.348;2023-12-29T00:43:41;7.37;;;5.30;;
34565;SDS011;20803;42.676;26.348;2023-12-29T00:46:07;8.43;;;5.30;;
34565;SDS011;20803;42.676;26.348;2023-12-29T00:48:33;7.80;;;5.20;;
34565;SDS011;20803;42.676;26.348;2023-12-29T00:51:02;7.37;;;5.23;;
34565;SDS011;20803;42.676;26.348;2023-12-29T00:53:28;7.87;;;5.63;;
34565;SDS011;20803;42.676;26.348;2023-12-29T00:55:56;9.23;;;5.70;;
34565;SDS011;20803;42.676;26.348;2023-12-29T00:58:22;10.63;;;6.57;;
34565;SDS011;20803;42.676;26.348;2023-12-29T01:00:48;8.53;;;5.60;;
34565;SDS011;20803;42.676;26.348;2023-12-29T01:03:13;9.70;;;5.43;;
34565;SDS011;20803;42.676;26.348;2023-12-29T01:05:39;8.53;;;5.17;;
34565;SDS011;20803;42.676;26.348;2023-12-29T01:08:04;7.87;;;5.10;;
34565;SDS011;20803;42.676;26.348;2023-12-29T01:10:30;9.60;;;6.40;;
34565;SDS011;20803;42.676;26.348;2023-12-29T01:12:55;10.47;;;6.77;;
34565;SDS011;20803;42.676;26.348;2023-12-29T01:15:21;9.23;;;6.13;;
34565;SDS011;20803;42.676;26.348;2023-12-29T01:17:46;7.93;;;5.67;;
34565;SDS011;20803;42.676;26.348;2023-12-29T01:20:12;7.50;;;5.83;;
34565;SDS011;20803;42.676;26.348;2023-12-29T01:22:37;9.93;;;5.70;;
34565;SDS011;20803;42.676;26.348;2023-12-29T01:25:03;8.20;;;5.20;;
34565;SDS011;20803;42.676;26.348;2023-12-29T01:27:29;9.37;;;5.80;;
34565;SDS011;20803;42.676;26.348;2023-12-29T01:29:55;8.53;;;5.03;;
34565;SDS011;20803;42.676;26.348;2023-12-29T01:32:21;8.10;;;4.43;;
34565;SDS011;20803;42.676;26.348;2023-12-29T01:34:46;6.93;;;5.00;;
34565;SDS011;20803;42.676;26.348;2023-12-29T01:37:12;7.63;;;4.67;;
34565;SDS011;20803;42.676;26.348;2023-12-29T01:39:37;6.77;;;4.23;;
34565;SDS011;20803;42.676;26.348;2023-12-29T01:42:03;6.67;;;4.13;;
34565;SDS011;20803;42.676;26.348;2023-12-29T01:44:29;6.40;;;4.20;;
34565;SDS011;20803;42.676;26.348;2023-12-29T01:46:55;7.17;;;4.43;;
34565;SDS011;20803;42.676;26.348;2023-12-29T01:49:24;7.53;;;4.73;;
34565;SDS011;20803;42.676;26.348;2023-12-29T01:51:54;10.13;;;4.03;;
34565;SDS011;20803;42.676;26.348;2023-12-29T01:54:23;7.40;;;4.80;;
34565;SDS011;20803;42.676;26.348;2023-12-29T01:56:53;9.77;;;4.50;;
34565;SDS011;20803;42.676;26.348;2023-12-29T01:59:21;8.33;;;5.00;;
34565;SDS011;20803;42.676;26.348;2023-12-29T02:01:47;10.57;;;5.03;;
34565;SDS011;20803;42.676;26.348;2023-12-29T02:04:13;7.43;;;4.53;;
34565;SDS011;20803;42.676;26.348;2023-12-29T02:06:39;6.83;;;4.17;;
34565;SDS011;20803;42.676;26.348;2023-12-29T02:09:05;5.53;;;4.23;;
34565;SDS011;20803;42.676;26.348;2023-12-29T02:11:31;6.60;;;4.40;;
34565;SDS011;20803;42.676;26.348;2023-12-29T02:13:58;8.10;;;4.50;;
34565;SDS011;20803;42.676;26.348;2023-12-29T02:16:30;8.07;;;3.93;;
34565;SDS011;20803;42.676;26.348;2023-12-29T02:19:04;6.40;;;4.40;;
34565;SDS011;20803;42.676;26.348;2023-12-29T02:21:40;6.43;;;4.00;;
34565;SDS011;20803;42.676;26.348;2023-12-29T02:24:06;7.33;;;4.23;;
34565;SDS011;20803;42.676;26.348;2023-12-29T02:26:31;6.63;;;4.70;;
34565;SDS011;20803;42.676;26.348;2023-12-29T02:29:00;7.80;;;4.20;;
34565;SDS011;20803;42.676;26.348;2023-12-29T02:31:30;4.90;;;3.93;;
34565;SDS011;20803;42.676;26.348;2023-12-29T02:34:00;7.03;;;4.10;;
34565;SDS011;20803;42.676;26.348;2023-12-29T02:36:31;6.53;;;4.20;;
34565;SDS011;20803;42.676;26.348;2023-12-29T02:38:58;6.50;;;3.97;;
34565;SDS011;20803;42.676;26.348;2023-12-29T02:41:23;10.60;;;4.70;;
34565;SDS011;20803;42.676;26.348;2023-12-29T02:43:50;6.17;;;4.20;;
34565;SDS011;20803;42.676;26.348;2023-12-29T02:46:15;6.50;;;4.77;;
34565;SDS011;20803;42.676;26.348;2023-12-29T02:48:41;5.67;;;4.50;;
34565;SDS011;20803;42.676;26.348;2023-12-29T02:51:07;7.13;;;4.90;;
34565;SDS011;20803;42.676;26.348;2023-12-29T02:53:33;6.33;;;5.03;;
34565;SDS011;20803;42.676;26.348;2023-12-29T02:55:59;9.43;;;5.83;;
34565;SDS011;20803;42.676;26.348;2023-12-29T02:58:24;13.33;;;5.93;;
34565;SDS011;20803;42.676;26.348;2023-12-29T03:00:50;8.30;;;5.40;;
34565;SDS011;20803;42.676;26.348;2023-12-29T03:03:15;8.47;;;6.10;;
34565;SDS011;20803;42.676;26.348;2023-12-29T03:05:41;8.07;;;5.57;;
34565;SDS011;20803;42.676;26.348;2023-12-29T03:08:06;9.83;;;5.97;;
34565;SDS011;20803;42.676;26.348;2023-12-29T03:10:32;11.50;;;6.73;;
34565;SDS011;20803;42.676;26.348;2023-12-29T03:12:57;9.93;;;6.70;;
34565;SDS011;20803;42.676;26.348;2023-12-29T03:15:23;10.50;;;6.50;;
34565;SDS011;20803;42.676;26.348;2023-12-29T03:17:48;10.27;;;6.47;;
34565;SDS011;20803;42.676;26.348;2023-12-29T03:20:13;10.63;;;6.70;;
34565;SDS011;20803;42.676;26.348;2023-12-29T03:22:39;12.17;;;7.07;;
34565;SDS011;20803;42.676;26.348;2023-12-29T03:25:05;10.37;;;7.60;;
34565;SDS011;20803;42.676;26.348;2023-12-29T03:27:30;11.70;;;7.67;;
34565;SDS011;20803;42.676;26.348;2023-12-29T03:29:56;8.57;;;7.07;;
34565;SDS011;20803;42.676;26.348;2023-12-29T03:32:21;14.43;;;7.07;;
34565;SDS011;20803;42.676;26.348;2023-12-29T03:34:47;9.60;;;6.00;;
34565;SDS011;20803;42.676;26.348;2023-12-29T03:37:12;9.00;;;5.73;;
34565;SDS011;20803;42.676;26.348;2023-12-29T03:39:38;8.10;;;5.70;;
34565;SDS011;20803;42.676;26.348;2023-12-29T03:42:03;8.37;;;5.23;;
34565;SDS011;20803;42.676;26.348;2023-12-29T03:44:29;9.33;;;5.97;;
34565;SDS011;20803;42.676;26.348;2023-12-29T03:46:54;8.73;;;5.00;;
34565;SDS011;20803;42.676;26.348;2023-12-29T03:49:20;7.00;;;4.93;;
34565;SDS011;20803;42.676;26.348;2023-12-29T03:51:45;10.90;;;5.67;;
34565;SDS011;20803;42.676;26.348;2023-12-29T03:54:11;7.73;;;5.40;;
34565;SDS011;20803;42.676;26.348;2023-12-29T03:56:37;6.77;;;4.80;;
34565;SDS011;20803;42.676;26.348;2023-12-29T03:59:02;8.20;;;5.30;;
34565;SDS011;20803;42.676;26.348;2023-12-29T04:01:28;10.83;;;6.17;;
34565;SDS011;20803;42.676;26.348;2023-12-29T04:03:58;9.23;;;5.50;;
34565;SDS011;20803;42.676;26.348;2023-12-29T04:06:23;6.97;;;5.00;;
34565;SDS011;20803;42.676;26.348;2023-12-29T04:08:49;9.30;;;5.73;;
34565;SDS011;20803;42.676;26.348;2023-12-29T04:11:14;12.63;;;6.17;;
34565;SDS011;20803;42.676;26.348;2023-12-29T04:13:40;8.20;;;5.53;;
34565;SDS011;20803;42.676;26.348;2023-12-29T04:16:05;11.20;;;6.17;;
34565;SDS011;20803;42.676;26.348;2023-12-29T04:18:31;9.23;;;6.37;;
34565;SDS011;20803;42.676;26.348;2023-12-29T04:20:56;8.50;;;5.90;;
34565;SDS011;20803;42.676;26.348;2023-12-29T04:23:22;7.57;;;5.43;;
34565;SDS011;20803;42.676;26.348;2023-12-29T04:25:47;6.80;;;5.03;;
34565;SDS011;20803;42.676;26.348;2023-12-29T04:28:13;8.53;;;5.30;;
34565;SDS011;20803;42.676;26.348;2023-12-29T04:30:38;10.13;;;5.23;;
34565;SDS011;20803;42.676;26.348;2023-12-29T04:33:04;9.87;;;5.93;;
34565;SDS011;20803;42.676;26.348;2023-12-29T04:35:29;10.30;;;5.90;;
34565;SDS011;20803;42.676;26.348;2023-12-29T04:37:55;9.00;;;5.83;;
34565;SDS011;20803;42.676;26.348;2023-12-29T04:40:20;8.83;;;5.03;;
34565;SDS011;20803;42.676;26.348;2023-12-29T04:42:46;6.80;;;5.27;;
34565;SDS011;20803;42.676;26.348;2023-12-29T04:45:12;6.97;;;4.83;;
34565;SDS011;20803;42.676;26.348;2023-12-29T04:47:38;7.93;;;5.10;;
34565;SDS011;20803;42.676;26.348;2023-12-29T04:50:03;7.70;;;5.83;;
34565;SDS011;20803;42.676;26.348;2023-12-29T04:52:31;8.40;;;5.80;;
34565;SDS011;20803;42.676;26.348;2023-12-29T04:54:57;9.30;;;6.60;;
34565;SDS011;20803;42.676;26.348;2023-12-29T04:57:22;13.23;;;6.57;;
34565;SDS011;20803;42.676;26.348;2023-12-29T04:59:48;9.50;;;6.77;;
34565;SDS011;20803;42.676;26.348;2023-12-29T05:02:13;13.67;;;6.67;;
34565;SDS011;20803;42.676;26.348;2023-12-29T05:04:39;11.83;;;6.27;;
34565;SDS011;20803;42.676;26.348;2023-12-29T05:07:08;9.50;;;6.73;;
34565;SDS011;20803;42.676;26.348;2023-12-29T05:09:34;10.73;;;6.33;;
34565;SDS011;20803;42.676;26.348;2023-12-29T05:12:00;11.63;;;7.33;;
34565;SDS011;20803;42.676;26.348;2023-12-29T05:14:25;9.43;;;6.93;;
34565;SDS011;20803;42.676;26.348;2023-12-29T05:16:51;12.27;;;7.33;;
34565;SDS011;20803;42.676;26.348;2023-12-29T05:19:16;13.47;;;7.90;;
34565;SDS011;20803;42.676;26.348;2023-12-29T05:21:42;9.67;;;7.53;;
34565;SDS011;20803;42.676;26.348;2023-12-29T05:24:07;12.53;;;6.73;;
34565;SDS011;20803;42.676;26.348;2023-12-29T05:26:33;12.43;;;7.67;;
34565;SDS011;20803;42.676;26.348;2023-12-29T05:28:58;19.40;;;8.67;;
34565;SDS011;20803;42.676;26.348;2023-12-29T05:31:24;15.13;;;9.33;;
34565;SDS011;20803;42.676;26.348;2023-12-29T05:33:50;13.00;;;8.73;;
34565;SDS011;20803;42.676;26.348;2023-12-29T05:36:16;11.87;;;7.10;;
34565;SDS011;20803;42.676;26.348;2023-12-29T05:38:42;10.97;;;6.87;;
34565;SDS011;20803;42.676;26.348;2023-12-29T05:41:12;10.63;;;7.30;;
34565;SDS011;20803;42.676;26.348;2023-12-29T05:43:38;13.97;;;7.37;;
34565;SDS011;20803;42.676;26.348;2023-12-29T05:46:08;16.00;;;7.87;;
34565;SDS011;20803;42.676;26.348;2023-12-29T05:48:35;11.07;;;8.17;;
34565;SDS011;20803;42.676;26.348;2023-12-29T05:51:05;13.53;;;7.67;;
34565;SDS011;20803;42.676;26.348;2023-12-29T05:53:34;19.07;;;8.60;;
34565;SDS011;20803;42.676;26.348;2023-12-29T05:56:00;13.37;;;9.80;;
34565;SDS011;20803;42.676;26.348;2023-12-29T05:58:25;14.83;;;10.53;;
34565;SDS011;20803;42.676;26.348;2023-12-29T06:00:51;22.13;;;11.83;;
34565;SDS011;20803;42.676;26.348;2023-12-29T06:03:16;22.20;;;13.60;;
34565;SDS011;20803;42.676;26.348;2023-12-29T06:05:42;19.73;;;12.53;;
34565;SDS011;20803;42.676;26.348;2023-12-29T06:08:07;26.43;;;14.27;;
34565;SDS011;20803;42.676;26.348;2023-12-29T06:10:33;25.30;;;14.73;;
34565;SDS011;20803;42.676;26.348;2023-12-29T06:13:01;24.27;;;14.57;;
34565;SDS011;20803;42.676;26.348;2023-12-29T06:15:27;20.30;;;14.77;;
34565;SDS011;20803;42.676;26.348;2023-12-29T06:17:53;21.30;;;15.00;;
34565;SDS011;20803;42.676;26.348;2023-12-29T06:20:19;21.77;;;14.67;;
34565;SDS011;20803;42.676;26.348;2023-12-29T06:22:45;21.37;;;14.03;;
34565;SDS011;20803;42.676;26.348;2023-12-29T06:25:11;21.03;;;13.70;;
34565;SDS011;20803;42.676;26.348;2023-12-29T06:27:37;20.53;;;13.17;;
34565;SDS011;20803;42.676;26.348;2023-12-29T06:30:07;19.37;;;12.50;;
34565;SDS011;20803;42.676;26.348;2023-12-29T06:32:33;15.83;;;12.07;;
34565;SDS011;20803;42.676;26.348;2023-12-29T06:34:59;21.17;;;14.93;;
34565;SDS011;20803;42.676;26.348;2023-12-29T06:37:25;17.43;;;12.13;;
34565;SDS011;20803;42.676;26.348;2023-12-29T06:39:50;22.43;;;15.43;;
34565;SDS011;20803;42.676;26.348;2023-12-29T06:42:16;20.77;;;14.50;;
34565;SDS011;20803;42.676;26.348;2023-12-29T06:44:41;23.00;;;15.03;;
34565;SDS011;20803;42.676;26.348;2023-12-29T06:47:07;32.10;;;17.47;;
34565;SDS011;20803;42.676;26.348;2023-12-29T06:49:35;33.73;;;16.90;;
34565;SDS011;20803;42.676;26.348;2023-12-29T06:52:01;27.57;;;16.20;;
34565;SDS011;20803;42.676;26.348;2023-12-29T06:54:27;25.90;;;15.93;;
34565;SDS011;20803;42.676;26.348;2023-12-29T06:56:52;48.27;;;32.43;;
34565;SDS011;20803;42.676;26.348;2023-12-29T06:59:20;36.07;;;23.20;;
34565;SDS011;20803;42.676;26.348;2023-12-29T07:01:46;37.27;;;25.10;;
34565;SDS011;20803;42.676;26.348;2023-12-29T07:04:12;35.97;;;24.93;;
34565;SDS011;20803;42.676;26.348;2023-12-29T07:06:37;36.83;;;22.63;;
34565;SDS011;20803;42.676;26.348;2023-12-29T07:09:03;32.37;;;22.80;;
34565;SDS011;20803;42.676;26.348;2023-12-29T07:11:29;34.60;;;22.23;;
34565;SDS011;20803;42.676;26.348;2023-12-29T07:13:54;36.37;;;21.90;;
34565;SDS011;20803;42.676;26.348;2023-12-29T07:16:20;32.53;;;22.30;;
34565;SDS011;20803;42.676;26.348;2023-12-29T07:18:46;33.20;;;21.10;;
34565;SDS011;20803;42.676;26.348;2023-12-29T07:21:12;26.20;;;17.47;;
34565;SDS011;20803;42.676;26.348;2023-12-29T07:23:38;27.33;;;17.13;;
34565;SDS011;20803;42.676;26.348;2023-12-29T07:26:04;20.43;;;15.50;;
34565;SDS011;20803;42.676;26.348;2023-12-29T07:28:30;33.70;;;20.07;;
34565;SDS011;20803;42.676;26.348;2023-12-29T07:30:57;53.03;;;34.70;;
34565;SDS011;20803;42.676;26.348;2023-12-29T07:33:23;62.30;;;39.13;;
34565;SDS011;20803;42.676;26.348;2023-12-29T07:35:49;71.17;;;45.10;;
34565;SDS011;20803;42.676;26.348;2023-12-29T07:38:15;83.93;;;53.57;;
34565;SDS011;20803;42.676;26.348;2023-12-29T07:40:41;82.80;;;50.10;;
34565;SDS011;20803;42.676;26.348;2023-12-29T07:43:06;68.50;;;42.80;;
34565;SDS011;20803;42.676;26.348;2023-12-29T07:45:32;60.77;;;38.03;;
34565;SDS011;20803;42.676;26.348;2023-12-29T07:47:57;43.03;;;28.10;;
34565;SDS011;20803;42.676;26.348;2023-12-29T07:50:23;50.93;;;32.47;;
34565;SDS011;20803;42.676;26.348;2023-12-29T07:52:48;47.17;;;28.10;;
34565;SDS011;20803;42.676;26.348;2023-12-29T07:55:14;29.40;;;17.77;;
34565;SDS011;20803;42.676;26.348;2023-12-29T07:57:41;29.93;;;18.60;;
34565;SDS011;20803;42.676;26.348;2023-12-29T08:00:08;34.17;;;22.33;;
34565;SDS011;20803;42.676;26.348;2023-12-29T08:02:34;34.27;;;19.73;;
34565;SDS011;20803;42.676;26.348;2023-12-29T08:05:00;26.43;;;16.77;;
34565;SDS011;20803;42.676;26.348;2023-12-29T08:07:26;32.20;;;16.50;;
34565;SDS011;20803;42.676;26.348;2023-12-29T08:09:51;25.43;;;16.83;;
34565;SDS011;20803;42.676;26.348;2023-12-29T08:12:17;24.60;;;16.37;;
34565;SDS011;20803;42.676;26.348;2023-12-29T08:14:42;22.30;;;14.67;;
34565;SDS011;20803;42.676;26.348;2023-12-29T08:17:07;23.77;;;16.57;;
34565;SDS011;20803;42.676;26.348;2023-12-29T08:19:34;23.10;;;15.37;;
34565;SDS011;20803;42.676;26.348;2023-12-29T08:21:59;23.07;;;14.20;;
34565;SDS011;20803;42.676;26.348;2023-12-29T08:24:25;19.80;;;13.33;;
34565;SDS011;20803;42.676;26.348;2023-12-29T08:26:50;19.90;;;13.33;;
34565;SDS011;20803;42.676;26.348;2023-12-29T08:29:16;15.97;;;11.97;;
34565;SDS011;20803;42.676;26.348;2023-12-29T08:31:44;18.93;;;13.23;;
34565;SDS011;20803;42.676;26.348;2023-12-29T08:34:09;21.37;;;13.50;;
34565;SDS011;20803;42.676;26.348;2023-12-29T08:36:35;23.40;;;13.47;;
34565;SDS011;20803;42.676;26.348;2023-12-29T08:39:01;17.10;;;13.70;;
34565;SDS011;20803;42.676;26.348;2023-12-29T08:41:26;15.80;;;12.43;;
34565;SDS011;20803;42.676;26.348;2023-12-29T08:43:52;18.77;;;14.27;;
34565;SDS011;20803;42.676;26.348;2023-12-29T08:46:18;20.03;;;13.73;;
34565;SDS011;20803;42.676;26.348;2023-12-29T08:48:44;18.60;;;13.07;;
34565;SDS011;20803;42.676;26.348;2023-12-29T08:51:09;16.20;;;12.10;;
34565;SDS011;20803;42.676;26.348;2023-12-29T08:53:35;19.23;;;12.70;;
34565;SDS011;20803;42.676;26.348;2023-12-29T08:56:01;14.83;;;11.43;;
34565;SDS011;20803;42.676;26.348;2023-12-29T08:58:28;20.30;;;11.97;;
34565;SDS011;20803;42.676;26.348;2023-12-29T09:00:55;13.87;;;10.70;;
34565;SDS011;20803;42.676;26.348;2023-12-29T09:03:21;19.73;;;10.97;;
34565;SDS011;20803;42.676;26.348;2023-12-29T09:05:46;18.03;;;11.03;;
34565;SDS011;20803;42.676;26.348;2023-12-29T09:08:12;15.17;;;10.70;;
34565;SDS011;20803;42.676;26.348;2023-12-29T09:10:37;14.30;;;10.17;;
34565;SDS011;20803;42.676;26.348;2023-12-29T09:13:04;16.47;;;9.83;;
34565;SDS011;20803;42.676;26.348;2023-12-29T09:15:29;32.23;;;11.60;;
34565;SDS011;20803;42.676;26.348;2023-12-29T09:17:55;28.90;;;13.23;;
34565;SDS011;20803;42.676;26.348;2023-12-29T09:20:20;37.77;;;13.67;;
34565;SDS011;20803;42.676;26.348;2023-12-29T09:22:46;34.57;;;15.67;;
34565;SDS011;20803;42.676;26.348;2023-12-29T09:25:12;41.43;;;18.23;;
34565;SDS011;20803;42.676;26.348;2023-12-29T09:27:38;29.53;;;19.33;;
34565;SDS011;20803;42.676;26.348;2023-12-29T09:30:04;28.67;;;17.23;;
34565;SDS011;20803;42.676;26.348;2023-12-29T09:32:30;35.07;;;19.77;;
34565;SDS011;20803;42.676;26.348;2023-12-29T09:34:55;37.17;;;18.67;;
34565;SDS011;20803;42.676;26.348;2023-12-29T09:37:21;23.60;;;15.67;;
34565;SDS011;20803;42.676;26.348;2023-12-29T09:39:47;21.57;;;13.33;;
34565;SDS011;20803;42.676;26.348;2023-12-29T09:42:13;19.97;;;12.97;;
34565;SDS011;20803;42.676;26.348;2023-12-29T09:44:45;20.40;;;12.63;;
34565;SDS011;20803;42.676;26.348;2023-12-29T09:47:14;17.10;;;11.93;;
34565;SDS011;20803;42.676;26.348;2023-12-29T09:49:48;19.17;;;13.07;;
34565;SDS011;20803;42.676;26.348;2023-12-29T09:52:14;18.70;;;12.87;;
34565;SDS011;20803;42.676;26.348;2023-12-29T09:54:42;19.20;;;13.37;;
34565;SDS011;20803;42.676;26.348;2023-12-29T09:57:08;22.07;;;12.90;;
34565;SDS011;20803;42.676;26.348;2023-12-29T09:59:37;27.00;;;11.87;;
34565;SDS011;20803;42.676;26.348;2023-12-29T10:02:05;24.07;;;14.43;;
34565;SDS011;20803;42.676;26.348;2023-12-29T10:04:39;23.07;;;13.33;;
34565;SDS011;20803;42.676;26.348;2023-12-29T10:07:05;22.00;;;12.07;;
34565;SDS011;20803;42.676;26.348;2023-12-29T10:09:33;22.07;;;11.93;;
34565;SDS011;20803;42.676;26.348;2023-12-29T10:12:00;21.60;;;13.43;;
34565;SDS011;20803;42.676;26.348;2023-12-29T10:14:36;20.33;;;12.97;;
34565;SDS011;20803;42.676;26.348;2023-12-29T10:17:09;16.70;;;11.50;;
34565;SDS011;20803;42.676;26.348;2023-12-29T10:25:38;17.83;;;11.60;;
34565;SDS011;20803;42.676;26.348;2023-12-29T10:28:03;16.23;;;10.73;;
34565;SDS011;20803;42.676;26.348;2023-12-29T10:30:30;18.87;;;11.67;;
34565;SDS011;20803;42.676;26.348;2023-12-29T10:32:56;15.70;;;12.33;;
34565;SDS011;20803;42.676;26.348;2023-12-29T10:35:23;18.17;;;12.27;;
34565;SDS011;20803;42.676;26.348;2023-12-29T10:37:49;25.27;;;13.60;;
34565;SDS011;20803;42.676;26.348;2023-12-29T10:40:18;22.37;;;13.93;;
34565;SDS011;20803;42.676;26.348;2023-12-29T10:42:54;23.67;;;15.43;;
34565;SDS011;20803;42.676;26.348;2023-12-29T10:45:22;17.17;;;13.03;;
34565;SDS011;20803;42.676;26.348;2023-12-29T10:47:50;19.87;;;11.93;;
34565;SDS011;20803;42.676;26.348;2023-12-29T10:50:16;17.90;;;11.73;;
34565;SDS011;20803;42.676;26.348;2023-12-29T10:52:41;16.57;;;12.43;;
34565;SDS011;20803;42.676;26.348;2023-12-29T10:55:10;21.63;;;14.37;;
34565;SDS011;20803;42.676;26.348;2023-12-29T10:57:37;26.63;;;14.10;;
34565;SDS011;20803;42.676;26.348;2023-12-29T11:00:03;20.67;;;15.70;;
34565;SDS011;20803;42.676;26.348;2023-12-29T11:02:31;20.90;;;14.40;;
34565;SDS011;20803;42.676;26.348;2023-12-29T11:05:02;21.17;;;13.70;;
34565;SDS011;20803;42.676;26.348;2023-12-29T11:07:32;24.27;;;14.37;;
34565;SDS011;20803;42.676;26.348;2023-12-29T11:10:02;20.90;;;13.90;;
34565;SDS011;20803;42.676;26.348;2023-12-29T11:12:38;17.40;;;13.33;;
34565;SDS011;20803;42.676;26.348;2023-12-29T11:15:05;19.30;;;14.43;;
34565;SDS011;20803;42.676;26.348;2023-12-29T11:17:32;22.67;;;13.57;;
34565;SDS011;20803;42.676;26.348;2023-12-29T11:19:59;19.87;;;14.43;;
34565;SDS011;20803;42.676;26.348;2023-12-29T11:22:29;18.60;;;13.90;;
34565;SDS011;20803;42.676;26.348;2023-12-29T11:24:56;19.83;;;13.00;;
34565;SDS011;20803;42.676;26.348;2023-12-29T11:27:29;24.07;;;13.40;;
34565;SDS011;20803;42.676;26.348;2023-12-29T11:29:56;20.70;;;13.00;;
34565;SDS011;20803;42.676;26.348;2023-12-29T11:32:32;21.63;;;16.93;;
34565;SDS011;20803;42.676;26.348;2023-12-29T11:35:03;24.93;;;17.37;;
34565;SDS011;20803;42.676;26.348;2023-12-29T11:42:43;28.73;;;19.47;;
34565;SDS011;20803;42.676;26.348;2023-12-29T11:47:53;25.40;;;17.33;;
34565;SDS011;20803;42.676;26.348;2023-12-29T11:50:30;25.83;;;18.37;;
34565;SDS011;20803;42.676;26.348;2023-12-29T11:52:57;26.57;;;18.50;;
34565;SDS011;20803;42.676;26.348;2023-12-29T11:55:27;21.67;;;15.83;;
34565;SDS011;20803;42.676;26.348;2023-12-29T11:58:00;26.87;;;15.43;;
34565;SDS011;20803;42.676;26.348;2023-12-29T12:00:42;27.87;;;18.33;;
34565;SDS011;20803;42.676;26.348;2023-12-29T12:03:27;25.00;;;16.30;;
34565;SDS011;20803;42.676;26.348;2023-12-29T12:05:56;29.50;;;22.70;;
34565;SDS011;20803;42.676;26.348;2023-12-29T12:10:56;24.60;;;19.23;;
34565;SDS011;20803;42.676;26.348;2023-12-29T12:13:45;17.37;;;14.97;;
34565;SDS011;20803;42.676;26.348;2023-12-29T12:19:10;17.90;;;13.93;;
34565;SDS011;20803;42.676;26.348;2023-12-29T12:21:36;17.30;;;13.73;;
34565;SDS011;20803;42.676;26.348;2023-12-29T12:24:05;20.47;;;15.60;;
34565;SDS011;20803;42.676;26.348;2023-12-29T12:26:32;20.57;;;15.90;;
34565;SDS011;20803;42.676;26.348;2023-12-29T12:28:58;23.20;;;14.93;;
34565;SDS011;20803;42.676;26.348;2023-12-29T12:31:24;20.37;;;15.40;;
34565;SDS011;20803;42.676;26.348;2023-12-29T12:33:56;20.53;;;14.70;;
34565;SDS011;20803;42.676;26.348;2023-12-29T12:36:22;20.20;;;14.17;;
34565;SDS011;20803;42.676;26.348;2023-12-29T12:38:55;18.73;;;14.70;;
34565;SDS011;20803;42.676;26.348;2023-12-29T12:41:22;20.43;;;14.27;;
34565;SDS011;20803;42.676;26.348;2023-12-29T12:43:59;16.90;;;13.70;;
34565;SDS011;20803;42.676;26.348;2023-12-29T12:46:55;19.07;;;13.77;;
34565;SDS011;20803;42.676;26.348;2023-12-29T12:49:24;18.43;;;14.50;;
34565;SDS011;20803;42.676;26.348;2023-12-29T12:51:49;25.20;;;16.70;;
34565;SDS011;20803;42.676;26.348;2023-12-29T12:54:19;21.07;;;15.47;;
34565;SDS011;20803;42.676;26.348;2023-12-29T12:56:45;18.77;;;13.50;;
34565;SDS011;20803;42.676;26.348;2023-12-29T12:59:11;15.87;;;12.13;;
34565;SDS011;20803;42.676;26.348;2023-12-29T13:01:38;16.17;;;12.00;;
34565;SDS011;20803;42.676;26.348;2023-12-29T13:04:04;19.30;;;13.50;;
34565;SDS011;20803;42.676;26.348;2023-12-29T13:06:34;20.07;;;13.33;;
34565;SDS011;20803;42.676;26.348;2023-12-29T13:09:05;26.40;;;12.73;;
34565;SDS011;20803;42.676;26.348;2023-12-29T13:11:36;18.93;;;11.93;;
34565;SDS011;20803;42.676;26.348;2023-12-29T13:14:02;15.23;;;10.33;;
34565;SDS011;20803;42.676;26.348;2023-12-29T13:19:22;14.43;;;8.97;;
34565;SDS011;20803;42.676;26.348;2023-12-29T13:21:55;11.80;;;9.03;;
34565;SDS011;20803;42.676;26.348;2023-12-29T13:24:21;10.57;;;8.30;;
34565;SDS011;20803;42.676;26.348;2023-12-29T13:26:47;10.43;;;8.10;;
34565;SDS011;20803;42.676;26.348;2023-12-29T13:29:19;13.13;;;8.93;;
34565;SDS011;20803;42.676;26.348;2023-12-29T13:31:50;13.80;;;9.10;;
34565;SDS011;20803;42.676;26.348;2023-12-29T13:34:25;11.73;;;8.50;;
34565;SDS011;20803;42.676;26.348;2023-12-29T13:37:01;11.37;;;8.77;;
34565;SDS011;20803;42.676;26.348;2023-12-29T13:39:38;14.00;;;8.97;;
34565;SDS011;20803;42.676;26.348;2023-12-29T13:42:08;10.63;;;8.27;;
34565;SDS011;20803;42.676;26.348;2023-12-29T13:44:36;12.33;;;8.77;;
34565;SDS011;20803;42.676;26.348;2023-12-29T13:47:06;12.07;;;8.57;;
34565;SDS011;20803;42.676;26.348;2023-12-29T13:49:32;12.93;;;8.50;;
34565;SDS011;20803;42.676;26.348;2023-12-29T13:52:02;13.60;;;9.20;;
34565;SDS011;20803;42.676;26.348;2023-12-29T13:54:28;17.90;;;9.70;;
34565;SDS011;20803;42.676;26.348;2023-12-29T13:56:54;14.10;;;8.87;;
34565;SDS011;20803;42.676;26.348;2023-12-29T13:59:31;15.23;;;8.53;;
34565;SDS011;20803;42.676;26.348;2023-12-29T14:04:43;12.73;;;8.57;;
34565;SDS011;20803;42.676;26.348;2023-12-29T14:07:08;12.43;;;8.47;;
34565;SDS011;20803;42.676;26.348;2023-12-29T14:09:35;15.97;;;8.73;;
34565;SDS011;20803;42.676;26.348;2023-12-29T14:12:00;12.03;;;8.40;;
34565;SDS011;20803;42.676;26.348;2023-12-29T14:14:26;13.13;;;8.23;;
34565;SDS011;20803;42.676;26.348;2023-12-29T14:16:52;11.83;;;8.63;;
34565;SDS011;20803;42.676;26.348;2023-12-29T14:19:18;10.77;;;8.53;;
34565;SDS011;20803;42.676;26.348;2023-12-29T14:21:44;10.73;;;8.20;;
34565;SDS011;20803;42.676;26.348;2023-12-29T14:24:18;10.50;;;8.30;;
34565;SDS011;20803;42.676;26.348;2023-12-29T14:26:54;10.67;;;8.30;;
34565;SDS011;20803;42.676;26.348;2023-12-29T14:29:24;10.93;;;7.83;;
34565;SDS011;20803;42.676;26.348;2023-12-29T14:31:51;10.93;;;8.80;;
34565;SDS011;20803;42.676;26.348;2023-12-29T14:34:17;10.13;;;8.20;;
34565;SDS011;20803;42.676;26.348;2023-12-29T14:36:43;12.00;;;8.60;;
34565;SDS011;20803;42.676;26.348;2023-12-29T14:39:09;13.40;;;8.70;;
34565;SDS011;20803;42.676;26.348;2023-12-29T14:41:35;11.93;;;9.27;;
34565;SDS011;20803;42.676;26.348;2023-12-29T14:44:01;14.30;;;8.80;;